Time,TemperatureF,DewpointF,PressureIn,WindDirection,WindDirectionDegrees,WindSpeedMPH,WindSpeedGustMPH,Humidity,HourlyPrecipIn,Conditions,Clouds,dailyrainin,SoftwareType,DateUTC
2013-06-29 00:01:00,61.8,60.0,29.61,NW,319,2.0,4.0,92,0.01,,,0.00,weatherlink.com 1.10,2013-06-29 04:01:00,
2013-06-29 00:16:00,61.7,59.0,29.61,NW,321,1.0,5.0,92,0.01,,,0.00,weatherlink.com 1.10,2013-06-29 04:16:00,
2013-06-29 00:31:00,61.7,59.0,29.61,NW,305,0.0,3.0,92,0.00,,,0.00,weatherlink.com 1.10,2013-06-29 04:31:00,
2013-06-29 00:46:00,61.7,59.0,29.61,NW,324,1.0,5.0,92,0.00,,,0.00,weatherlink.com 1.10,2013-06-29 04:46:00,
2013-06-29 01:01:00,61.7,59.0,29.61,NE,36,3.0,5.0,92,0.00,,,0.00,weatherlink.com 1.10,2013-06-29 05:01:00,
2013-06-29 01:16:00,61.5,59.0,29.61,WNW,294,2.0,3.0,92,0.00,,,0.00,weatherlink.com 1.10,2013-06-29 05:16:00,
2013-06-29 01:31:00,61.2,59.0,29.61,NW,317,0.0,2.0,92,0.00,,,0.00,weatherlink.com 1.10,2013-06-29 05:31:00,
2013-06-29 01:46:00,60.8,59.0,29.61,NE,41,0.0,5.0,92,0.00,,,0.00,weatherlink.com 1.10,2013-06-29 05:46:00,
2013-06-29 02:01:00,60.8,58.0,29.61,East,89,2.0,8.0,89,0.00,,,0.00,weatherlink.com 1.10,2013-06-29 06:01:00,
2013-06-29 02:16:00,60.1,56.0,29.61,ENE,58,2.0,3.0,87,0.00,,,0.00,weatherlink.com 1.10,2013-06-29 06:16:00,
2013-06-29 02:31:00,59.6,56.0,29.61,East,99,0.0,4.0,88,0.00,,,0.00,weatherlink.com 1.10,2013-06-29 06:31:00,
2013-06-29 02:46:00,59.2,56.0,29.61,West,278,0.0,2.0,89,0.00,,,0.00,weatherlink.com 1.10,2013-06-29 06:46:00,
2013-06-29 03:01:00,58.9,56.0,29.61,NW,308,1.0,4.0,90,0.00,,,0.00,weatherlink.com 1.10,2013-06-29 07:01:00,
2013-06-29 03:16:00,58.3,56.0,29.61,WNW,294,2.0,2.0,90,0.00,,,0.00,weatherlink.com 1.10,2013-06-29 07:16:00,
2013-06-29 03:31:00,58.0,55.0,29.61,NW,324,0.0,2.0,91,0.00,,,0.00,weatherlink.com 1.10,2013-06-29 07:31:00,
2013-06-29 03:46:00,57.8,55.0,29.61,NNW,339,0.0,2.0,91,0.00,,,0.00,weatherlink.com 1.10,2013-06-29 07:46:00,
2013-06-29 04:01:00,57.5,55.0,29.61,WNW,300,2.0,3.0,91,0.00,,,0.00,weatherlink.com 1.10,2013-06-29 08:01:00,
2013-06-29 04:16:00,57.3,55.0,29.61,West,274,1.0,3.0,91,0.00,,,0.00,weatherlink.com 1.10,2013-06-29 08:16:00,
2013-06-29 04:31:00,57.1,55.0,29.61,NW,319,0.0,4.0,91,0.00,,,0.00,weatherlink.com 1.10,2013-06-29 08:31:00,
2013-06-29 04:46:00,56.8,54.0,29.62,WNW,289,1.0,3.0,91,0.00,,,0.00,weatherlink.com 1.10,2013-06-29 08:46:00,
2013-06-29 05:02:00,56.6,54.0,29.62,NW,305,0.0,2.0,92,0.00,,,0.00,weatherlink.com 1.10,2013-06-29 09:02:00,
2013-06-29 05:17:00,56.4,54.0,29.62,NW,316,0.0,1.0,92,0.00,,,0.00,weatherlink.com 1.10,2013-06-29 09:17:00,
2013-06-29 05:32:00,56.2,54.0,29.62,WNW,290,0.0,3.0,92,0.00,,,0.00,weatherlink.com 1.10,2013-06-29 09:32:00,
2013-06-29 05:47:00,55.9,54.0,29.62,WNW,287,0.0,2.0,92,0.00,,,0.00,weatherlink.com 1.10,2013-06-29 09:47:00,
2013-06-29 06:02:00,56.0,54.0,29.62,WNW,297,1.0,3.0,92,0.00,,,0.00,weatherlink.com 1.10,2013-06-29 10:02:00,
2013-06-29 06:17:00,56.1,54.0,29.63,WNW,294,0.0,2.0,92,0.00,,,0.00,weatherlink.com 1.10,2013-06-29 10:17:00,
2013-06-29 06:32:00,56.3,54.0,29.62,NNW,346,0.0,2.0,92,0.00,,,0.00,weatherlink.com 1.10,2013-06-29 10:32:00,
2013-06-29 06:47:00,56.6,54.0,29.62,WNW,285,1.0,3.0,92,0.00,,,0.00,weatherlink.com 1.10,2013-06-29 10:47:00,
2013-06-29 07:02:00,57.1,55.0,29.63,NNW,327,1.0,4.0,92,0.00,,,0.00,weatherlink.com 1.10,2013-06-29 11:02:00,
2013-06-29 07:17:00,57.5,55.0,29.64,North,357,2.0,4.0,92,0.00,,,0.00,weatherlink.com 1.10,2013-06-29 11:17:00,
2013-06-29 07:32:00,57.9,56.0,29.63,NW,322,2.0,5.0,92,0.00,,,0.00,weatherlink.com 1.10,2013-06-29 11:32:00,
2013-06-29 07:47:00,58.4,56.0,29.63,NNW,344,2.0,4.0,91,0.00,,,0.00,weatherlink.com 1.10,2013-06-29 11:47:00,
2013-06-29 08:02:00,58.6,56.0,29.64,NW,311,1.0,4.0,91,0.00,,,0.00,weatherlink.com 1.10,2013-06-29 12:02:00,
2013-06-29 08:17:00,58.9,56.0,29.64,NW,312,1.0,3.0,91,0.00,,,0.00,weatherlink.com 1.10,2013-06-29 12:17:00,
2013-06-29 08:32:00,59.2,57.0,29.64,North,351,2.0,4.0,91,0.00,,,0.00,weatherlink.com 1.10,2013-06-29 12:32:00,
2013-06-29 08:47:00,59.9,57.0,29.64,NW,315,2.0,3.0,90,0.00,,,0.00,weatherlink.com 1.10,2013-06-29 12:47:00,
2013-06-29 09:02:00,60.1,57.0,29.64,NW,322,0.0,4.0,90,0.00,,,0.00,weatherlink.com 1.10,2013-06-29 13:02:00,
2013-06-29 09:17:00,60.3,57.0,29.65,NW,308,1.0,3.0,90,0.00,,,0.00,weatherlink.com 1.10,2013-06-29 13:17:00,
2013-06-29 09:32:00,60.9,58.0,29.64,NW,319,1.0,5.0,89,0.00,,,0.00,weatherlink.com 1.10,2013-06-29 13:32:00,
2013-06-29 09:47:00,62.3,59.0,29.65,WNW,296,1.0,5.0,88,0.00,,,0.00,weatherlink.com 1.10,2013-06-29 13:47:00,
2013-06-29 10:02:00,62.8,59.0,29.65,NW,326,1.0,5.0,86,0.00,,,0.00,weatherlink.com 1.10,2013-06-29 14:02:00,
2013-06-29 10:17:00,64.2,59.0,29.65,NNW,347,3.0,7.0,84,0.00,,,0.00,weatherlink.com 1.10,2013-06-29 14:17:00,
2013-06-29 10:32:00,65.0,59.0,29.65,NNE,28,3.0,7.0,80,0.00,,,0.00,weatherlink.com 1.10,2013-06-29 14:32:00,
2013-06-29 10:47:00,65.1,59.0,29.65,NNE,26,1.0,5.0,81,0.00,,,0.00,weatherlink.com 1.10,2013-06-29 14:47:00,
2013-06-29 11:02:00,65.1,60.0,29.65,WNW,291,4.0,8.0,82,0.00,,,0.00,weatherlink.com 1.10,2013-06-29 15:02:00,
2013-06-29 11:17:00,65.3,60.0,29.65,NE,47,2.0,10.0,82,0.00,,,0.00,weatherlink.com 1.10,2013-06-29 15:17:00,
2013-06-29 11:32:00,66.9,59.0,29.65,NNW,340,3.0,6.0,77,0.00,,,0.00,weatherlink.com 1.10,2013-06-29 15:32:00,
2013-06-29 11:47:00,66.7,60.0,29.65,ENE,61,1.0,9.0,79,0.00,,,0.00,weatherlink.com 1.10,2013-06-29 15:47:00,
2013-06-29 12:02:00,68.1,61.0,29.66,West,278,2.0,7.0,77,0.00,,,0.00,weatherlink.com 1.10,2013-06-29 16:02:00,
2013-06-29 12:17:00,69.1,61.0,29.66,East,92,1.0,8.0,76,0.00,,,0.00,weatherlink.com 1.10,2013-06-29 16:17:00,
2013-06-29 12:32:00,68.4,61.0,29.66,North,4,4.0,5.0,76,0.00,,,0.00,weatherlink.com 1.10,2013-06-29 16:32:00,
2013-06-29 12:47:00,69.7,61.0,29.66,NE,47,5.0,7.0,74,0.00,,,0.00,weatherlink.com 1.10,2013-06-29 16:47:00,
2013-06-29 13:02:00,70.2,62.0,29.66,WNW,302,3.0,8.0,74,0.00,,,0.00,weatherlink.com 1.10,2013-06-29 17:02:00,
2013-06-29 13:17:00,71.5,62.0,29.66,WNW,293,8.0,8.0,73,0.00,,,0.00,weatherlink.com 1.10,2013-06-29 17:17:00,
2013-06-29 13:32:00,70.9,61.0,29.66,North,356,2.0,8.0,71,0.00,,,0.00,weatherlink.com 1.10,2013-06-29 17:32:00,
2013-06-29 13:48:00,72.3,62.0,29.66,NNW,335,2.0,8.0,71,0.00,,,0.00,weatherlink.com 1.10,2013-06-29 17:48:00,
2013-06-29 14:03:00,72.7,62.0,29.67,North,9,1.0,9.0,68,0.00,,,0.00,weatherlink.com 1.10,2013-06-29 18:03:00,
2013-06-29 14:18:00,72.4,62.0,29.67,NW,315,2.0,9.0,69,0.00,,,0.00,weatherlink.com 1.10,2013-06-29 18:18:00,
2013-06-29 14:33:00,72.8,62.0,29.67,WNW,300,3.0,8.0,69,0.00,,,0.00,weatherlink.com 1.10,2013-06-29 18:33:00,
2013-06-29 14:48:00,73.2,61.0,29.67,NW,324,5.0,9.0,66,0.00,,,0.00,weatherlink.com 1.10,2013-06-29 18:48:00,
2013-06-29 15:03:00,73.3,61.0,29.67,NNW,335,3.0,8.0,66,0.00,,,0.00,weatherlink.com 1.10,2013-06-29 19:03:00,
2013-06-29 15:18:00,73.6,62.0,29.67,NNE,32,2.0,5.0,67,0.00,,,0.00,weatherlink.com 1.10,2013-06-29 19:18:00,
2013-06-29 15:33:00,73.8,61.0,29.67,NW,304,6.0,10.0,65,0.00,,,0.00,weatherlink.com 1.10,2013-06-29 19:33:00,
2013-06-29 15:48:00,74.7,62.0,29.68,NNW,342,4.0,9.0,64,0.00,,,0.00,weatherlink.com 1.10,2013-06-29 19:48:00,
2013-06-29 16:03:00,74.6,62.0,29.67,WNW,297,6.0,8.0,64,0.00,,,0.00,weatherlink.com 1.10,2013-06-29 20:03:00,
2013-06-29 16:18:00,74.3,61.0,29.67,NW,313,2.0,9.0,64,0.00,,,0.00,weatherlink.com 1.10,2013-06-29 20:18:00,
2013-06-29 16:34:00,75.1,62.0,29.67,WNW,293,5.0,9.0,63,0.00,,,0.00,weatherlink.com 1.10,2013-06-29 20:34:00,
2013-06-29 16:48:00,75.4,62.0,29.67,WNW,287,3.0,9.0,63,0.00,,,0.00,weatherlink.com 1.10,2013-06-29 20:48:00,
2013-06-29 17:03:00,75.3,61.0,29.67,NE,55,5.0,10.0,62,0.00,,,0.00,weatherlink.com 1.10,2013-06-29 21:03:00,
2013-06-29 17:18:00,75.0,62.0,29.67,NNW,327,0.0,8.0,64,0.00,,,0.00,weatherlink.com 1.10,2013-06-29 21:18:00,
2013-06-29 17:33:00,74.7,63.0,29.68,NNE,29,5.0,7.0,66,0.00,,,0.00,weatherlink.com 1.10,2013-06-29 21:33:00,
2013-06-29 17:48:00,74.5,62.0,29.68,WNW,291,5.0,7.0,65,0.00,,,0.00,weatherlink.com 1.10,2013-06-29 21:48:00,
2013-06-29 18:03:00,73.1,61.0,29.68,NNW,347,7.0,9.0,67,0.00,,,0.00,weatherlink.com 1.10,2013-06-29 22:03:00,
2013-06-29 18:18:00,74.4,62.0,29.68,WNW,296,5.0,9.0,66,0.00,,,0.00,weatherlink.com 1.10,2013-06-29 22:18:00,
2013-06-29 18:33:00,74.9,62.0,29.68,NNE,25,3.0,11.0,65,0.00,,,0.00,weatherlink.com 1.10,2013-06-29 22:33:00,
2013-06-29 18:48:00,74.3,61.0,29.69,WNW,297,3.0,11.0,63,0.00,,,0.00,weatherlink.com 1.10,2013-06-29 22:48:00,
2013-06-29 19:03:00,74.0,61.0,29.69,SW,218,0.0,9.0,63,0.00,,,0.00,weatherlink.com 1.10,2013-06-29 23:03:00,
2013-06-29 19:18:00,74.0,60.0,29.69,NW,305,3.0,7.0,62,0.00,,,0.00,weatherlink.com 1.10,2013-06-29 23:18:00,
2013-06-29 19:33:00,73.9,61.0,29.69,NNE,30,1.0,5.0,64,0.00,,,0.00,weatherlink.com 1.10,2013-06-29 23:33:00,
2013-06-29 19:48:00,72.5,60.0,29.70,NW,318,1.0,7.0,65,0.00,,,0.00,weatherlink.com 1.10,2013-06-29 23:48:00,
2013-06-29 20:03:00,71.1,60.0,29.70,WNW,288,2.0,4.0,68,0.00,,,0.00,weatherlink.com 1.10,2013-06-30 00:03:00,
2013-06-29 20:18:00,70.6,60.0,29.70,NW,308,0.0,4.0,69,0.00,,,0.00,weatherlink.com 1.10,2013-06-30 00:18:00,
2013-06-29 20:33:00,69.6,59.0,29.71,NNW,347,0.0,5.0,70,0.00,,,0.00,weatherlink.com 1.10,2013-06-30 00:33:00,
2013-06-29 20:48:00,68.6,59.0,29.71,North,352,0.0,4.0,71,0.00,,,0.00,weatherlink.com 1.10,2013-06-30 00:48:00,
2013-06-29 21:03:00,67.3,59.0,29.72,NNW,343,2.0,4.0,74,0.00,,,0.00,weatherlink.com 1.10,2013-06-30 01:03:00,
2013-06-29 21:18:00,66.1,58.0,29.72,WNW,300,0.0,3.0,76,0.00,,,0.00,weatherlink.com 1.10,2013-06-30 01:18:00,
2013-06-29 21:33:00,65.2,58.0,29.73,NW,306,1.0,4.0,78,0.00,,,0.00,weatherlink.com 1.10,2013-06-30 01:33:00,
2013-06-29 21:48:00,64.4,58.0,29.73,WNW,294,1.0,4.0,79,0.00,,,0.00,weatherlink.com 1.10,2013-06-30 01:48:00,
2013-06-29 22:03:00,63.6,58.0,29.74,WNW,293,1.0,3.0,81,0.00,,,0.00,weatherlink.com 1.10,2013-06-30 02:03:00,
2013-06-29 22:18:00,63.1,58.0,29.75,NNW,343,1.0,3.0,82,0.00,,,0.00,weatherlink.com 1.10,2013-06-30 02:18:00,
2013-06-29 22:33:00,62.9,57.0,29.75,NNE,30,2.0,4.0,82,0.00,,,0.00,weatherlink.com 1.10,2013-06-30 02:33:00,
2013-06-29 22:48:00,62.6,57.0,29.75,NW,316,1.0,3.0,83,0.00,,,0.00,weatherlink.com 1.10,2013-06-30 02:48:00,
2013-06-29 23:03:00,62.4,57.0,29.76,North,11,2.0,4.0,82,0.00,,,0.00,weatherlink.com 1.10,2013-06-30 03:03:00,
2013-06-29 23:18:00,62.1,57.0,29.76,NW,304,1.0,3.0,83,0.00,,,0.00,weatherlink.com 1.10,2013-06-30 03:18:00,
2013-06-29 23:33:00,61.6,56.0,29.76,WNW,300,2.0,3.0,83,0.00,,,0.00,weatherlink.com 1.10,2013-06-30 03:33:00,
2013-06-29 23:48:00,61.6,56.0,29.76,NNW,338,3.0,6.0,83,0.00,,,0.00,weatherlink.com 1.10,2013-06-30 03:48:00,